Time;durP1;ratioP1;P1;durP2;ratioP2;P2;SDS_P1;SDS_P2;PMS_P1;PMS_P2;Temp;Humidity;BMP_temperature;BMP_pressure;BME280_temperature;BME280_humidity;BME280_pressure;Samples;Min_cycle;Max_cycle;Signal;HPM_P1;HPM_P2
2022/08/22 00:01:37;;;;;;;8.90;6.60;;;;;;;23.35;100.00;99297.09;5110394;28;20193;-75
2022/08/22 00:04:12;;;;;;;7.28;6.45;;;;;;;23.32;100.00;99299.03;5111908;28;20208;-75
2022/08/22 00:06:49;;;;;;;9.60;6.78;;;;;;;23.04;100.00;99288.97;5110438;28;20204;-76
2022/08/22 00:09:31;;;;;;;10.98;6.90;;;;;;;23.09;100.00;99305.44;5103319;28;20189;-76
2022/08/22 00:12:08;;;;;;;7.53;6.28;;;;;;;23.22;100.00;99303.94;5111521;28;20236;-75
2022/08/22 00:14:41;;;;;;;6.57;5.93;;;;;;;23.27;100.00;99295.75;5111466;28;20189;-75
2022/08/22 00:17:23;;;;;;;6.78;5.70;;;;;;;23.31;100.00;99314.06;5111551;28;20201;-76
2022/08/22 00:19:58;;;;;;;8.95;6.38;;;;;;;23.14;100.00;99293.72;5094418;28;20190;-76
2022/08/22 00:22:33;;;;;;;7.55;6.03;;;;;;;23.35;100.00;99320.91;5080472;28;20190;-75
2022/08/22 00:25:12;;;;;;;7.63;6.15;;;;;;;23.19;100.00;99323.44;5091344;28;20642;-76
2022/08/22 00:27:48;;;;;;;7.25;5.78;;;;;;;23.23;100.00;99324.16;5092445;28;20308;-76
2022/08/22 00:30:17;;;;;;;10.73;5.95;;;;;;;23.02;100.00;99314.59;5091552;28;20204;-76
2022/08/22 00:32:50;;;;;;;8.52;6.07;;;;;;;22.79;100.00;99291.06;5092139;28;20222;-76
2022/08/22 00:35:23;;;;;;;10.95;5.95;;;;;;;23.08;100.00;99322.25;5091202;28;20198;-75
2022/08/22 00:38:02;;;;;;;8.95;6.53;;;;;;;22.94;100.00;99316.75;5090685;28;20717;-76
2022/08/22 00:40:44;;;;;;;7.22;6.28;;;;;;;23.13;100.00;99339.63;5091057;28;20259;-77
2022/08/22 00:43:54;;;;;;;8.10;6.43;;;;;;;23.25;100.00;99347.88;5096180;28;20255;-76
2022/08/22 00:46:50;;;;;;;8.00;6.38;;;;;;;23.36;100.00;99349.09;5058046;28;20195;-76
2022/08/22 00:49:42;;;;;;;11.25;6.53;;;;;;;23.28;100.00;99350.38;4919654;28;20202;-77
2022/08/22 00:52:30;;;;;;;6.18;5.57;;;;;;;23.17;100.00;99357.06;4965458;28;20214;-77
2022/08/22 00:55:20;;;;;;;7.65;6.20;;;;;;;23.29;100.00;99357.41;4961872;28;20206;-76
2022/08/22 00:58:24;;;;;;;6.40;5.75;;;;;;;22.96;100.00;99347.50;4902445;28;20200;-76
2022/08/22 01:00:55;;;;;;;7.32;5.85;;;;;;;22.78;100.00;99279.63;4950194;29;20209;-75
2022/08/22 01:04:08;;;;;;;9.07;6.18;;;;;;;23.23;100.00;99362.03;4949969;28;20299;-76
2022/08/22 01:06:45;;;;;;;9.07;5.85;;;;;;;23.33;100.00;99372.19;4961566;28;20234;-77
2022/08/22 01:09:27;;;;;;;8.00;5.80;;;;;;;23.45;100.00;99363.69;4967097;28;20241;-76
2022/08/22 01:12:25;;;;;;;6.32;5.80;;;;;;;23.52;100.00;99370.38;4966568;28;20688;-76
2022/08/22 01:14:56;;;;;;;7.05;5.85;;;;;;;23.64;100.00;99352.13;4895571;29;20665;-76
2022/08/22 01:18:10;;;;;;;8.10;6.05;;;;;;;23.54;100.00;99369.38;4904234;29;20209;-76
2022/08/22 01:21:19;;;;;;;9.32;6.25;;;;;;;23.66;100.00;99360.84;4902695;29;20213;-76
2022/08/22 01:24:26;;;;;;;8.38;5.80;;;;;;;23.90;100.00;99368.50;4951201;28;20760;-76
2022/08/22 01:27:26;;;;;;;6.38;5.40;;;;;;;23.97;100.00;99369.91;4996247;28;20200;-76
2022/08/22 01:30:19;;;;;;;5.50;5.00;;;;;;;24.07;100.00;99365.84;5047662;28;20783;-76
2022/08/22 01:33:49;;;;;;;7.18;5.30;;;;;;;24.01;100.00;99367.00;5024298;28;20227;-76
2022/08/22 01:36:39;;;;;;;7.50;5.82;;;;;;;23.86;100.00;99375.75;4979162;28;20210;-76
2022/08/22 01:39:28;;;;;;;7.28;5.40;;;;;;;23.84;100.00;99374.06;4968996;28;20230;-76
2022/08/22 01:42:41;;;;;;;7.43;5.30;;;;;;;24.08;100.00;99373.69;4975719;28;20205;-77
2022/08/22 01:45:40;;;;;;;8.73;5.70;;;;;;;23.72;100.00;99348.25;4920773;29;20208;-76
2022/08/22 01:48:15;;;;;;;8.05;6.05;;;;;;;23.64;100.00;99356.56;4882001;29;20196;-76
2022/08/22 01:50:47;;;;;;;9.25;5.85;;;;;;;23.65;100.00;99368.88;4930728;28;20194;-76
2022/08/22 01:53:21;;;;;;;7.15;5.85;;;;;;;23.69;100.00;99346.56;4936359;28;20226;-76
2022/08/22 01:56:00;;;;;;;6.88;6.18;;;;;;;23.80;100.00;99357.50;4968970;28;20201;-76
2022/08/22 01:58:31;;;;;;;9.77;6.25;;;;;;;23.55;100.00;99357.00;4971897;28;20238;-76
2022/08/22 02:01:17;;;;;;;9.07;6.10;;;;;;;23.61;100.00;99340.84;4988014;28;20205;-76
2022/08/22 02:03:58;;;;;;;12.02;6.60;;;;;;;23.85;100.00;99352.84;4929156;28;20209;-76
2022/08/22 02:06:36;;;;;;;10.43;6.88;;;;;;;23.75;100.00;99342.78;4990521;28;20205;-77
2022/08/22 02:09:12;;;;;;;15.77;7.80;;;;;;;23.63;100.00;99355.69;4982865;28;20600;-77
2022/08/22 02:11:46;;;;;;;15.18;8.02;;;;;;;23.33;100.00;99324.56;5031496;28;20242;-77
2022/08/22 02:14:21;;;;;;;12.77;7.97;;;;;;;23.49;100.00;99367.88;5046628;28;20227;-77
2022/08/22 02:16:54;;;;;;;8.65;7.75;;;;;;;23.65;100.00;99363.56;5031487;28;20188;-77
2022/08/22 02:19:31;;;;;;;10.07;7.70;;;;;;;23.49;100.00;99362.59;5040320;28;20202;-76
2022/08/22 02:22:03;;;;;;;9.57;7.28;;;;;;;23.32;100.00;99344.03;5092707;28;20212;-77
2022/08/22 02:24:47;;;;;;;11.02;7.03;;;;;;;22.87;100.00;99304.75;5100556;28;20200;-77
2022/08/22 02:27:23;;;;;;;18.48;7.70;;;;;;;23.13;100.00;99307.88;5095614;28;20685;-77
2022/08/22 02:30:01;;;;;;;10.10;7.43;;;;;;;23.44;100.00;99346.06;5094840;28;20695;-77
2022/08/22 02:32:33;;;;;;;13.00;6.60;;;;;;;23.18;100.00;99345.56;5093377;28;20233;-76
2022/08/22 02:35:05;;;;;;;13.13;6.53;;;;;;;23.10;100.00;99350.34;5109770;28;20201;-76
2022/08/22 02:37:38;;;;;;;9.60;6.53;;;;;;;22.74;100.00;99325.63;5081254;28;20233;-76
2022/08/22 02:40:13;;;;;;;10.18;6.47;;;;;;;23.07;100.00;99344.34;5113694;28;20198;-75
2022/08/22 02:42:48;;;;;;;8.48;7.22;;;;;;;23.11;100.00;99345.91;5108122;28;20198;-76
2022/08/22 02:45:25;;;;;;;7.15;6.45;;;;;;;23.03;100.00;99325.13;5072763;28;20198;-76
2022/08/22 02:47:59;;;;;;;7.28;6.30;;;;;;;22.87;100.00;99321.47;5086167;28;20654;-77
2022/08/22 02:50:37;;;;;;;10.10;6.43;;;;;;;23.18;100.00;99344.69;5112928;28;20270;-76
2022/08/22 02:53:12;;;;;;;7.80;5.95;;;;;;;23.37;100.00;99353.44;5090273;28;20262;-76
2022/08/22 02:55:50;;;;;;;7.13;6.43;;;;;;;23.14;100.00;99357.19;5097642;28;20580;-76
2022/08/22 02:58:26;;;;;;;8.98;6.35;;;;;;;23.12;100.00;99353.75;5093379;28;20205;-76
2022/08/22 03:01:33;;;;;;;9.65;6.93;;;;;;;23.35;100.00;99359.75;5092892;28;20204;-77
2022/08/22 03:04:21;;;;;;;15.15;7.10;;;;;;;23.32;100.00;99358.09;5093142;28;20202;-77
2022/08/22 03:07:10;;;;;;;7.80;7.00;;;;;;;23.15;100.00;99364.19;5093093;28;20202;-76
2022/08/22 03:09:41;;;;;;;10.18;6.60;;;;;;;23.07;100.00;99360.22;5092989;28;20214;-76
2022/08/22 03:12:18;;;;;;;8.45;7.10;;;;;;;22.99;100.00;99362.34;5093032;28;20217;-76
2022/08/22 03:14:54;;;;;;;12.18;7.55;;;;;;;22.94;100.00;99359.91;5092915;28;20278;-77
2022/08/22 03:17:26;;;;;;;9.90;7.90;;;;;;;22.99;100.00;99363.22;5092815;28;20205;-76
2022/08/22 03:20:00;;;;;;;12.57;8.10;;;;;;;22.91;100.00;99351.25;5092718;28;20194;-76
2022/08/22 03:22:36;;;;;;;14.48;8.80;;;;;;;22.64;100.00;99342.81;5092391;28;20265;-76
2022/08/22 03:25:12;;;;;;;11.88;8.07;;;;;;;22.76;100.00;99339.63;5056750;28;20221;-76
2022/08/22 03:27:44;;;;;;;10.88;8.18;;;;;;;22.84;100.00;99348.06;5093482;28;20274;-76
2022/08/22 03:30:19;;;;;;;13.70;9.30;;;;;;;22.79;100.00;99328.06;5092730;28;20190;-75
2022/08/22 03:32:53;;;;;;;16.33;9.98;;;;;;;23.12;100.00;99368.75;5092029;28;20217;-76
2022/08/22 03:35:30;;;;;;;11.98;9.07;;;;;;;23.38;100.00;99365.75;5073713;28;20201;-76
2022/08/22 03:38:11;;;;;;;11.73;9.00;;;;;;;23.45;100.00;99371.63;5104356;28;20242;-77
2022/08/22 03:40:52;;;;;;;18.83;8.95;;;;;;;23.48;100.00;99371.47;5110787;28;20653;-76
2022/08/22 03:43:52;;;;;;;19.42;9.60;;;;;;;23.12;100.00;99368.75;5106130;28;20215;-76
2022/08/22 03:46:45;;;;;;;12.27;9.57;;;;;;;23.26;100.00;99360.19;5048784;28;20195;-76
2022/08/22 03:49:42;;;;;;;13.93;8.48;;;;;;;23.25;100.00;99348.75;5047595;28;20691;-76
2022/08/22 03:53:09;;;;;;;13.55;8.93;;;;;;;23.40;100.00;99370.97;5045673;28;20229;-75
2022/08/22 03:56:04;;;;;;;9.98;7.70;;;;;;;23.26;100.00;99376.06;4994036;28;20758;-75
2022/08/22 03:58:48;;;;;;;9.10;7.40;;;;;;;23.14;100.00;99370.44;4997952;28;20200;-76
2022/08/22 04:01:52;;;;;;;10.43;7.70;;;;;;;23.34;100.00;99380.03;5007977;28;20197;-76
2022/08/22 04:04:56;;;;;;;7.82;6.90;;;;;;;23.51;100.00;99381.91;4989780;28;20197;-76
2022/08/22 04:07:52;;;;;;;9.05;6.70;;;;;;;23.39;100.00;99371.88;4959161;28;20208;-76
2022/08/22 04:10:50;;;;;;;9.73;6.90;;;;;;;23.49;100.00;99384.63;4920831;29;20196;-75
2022/08/22 04:13:51;;;;;;;7.97;7.10;;;;;;;23.69;100.00;99387.16;4927830;28;20230;-76
2022/08/22 04:16:53;;;;;;;7.88;6.65;;;;;;;23.99;100.00;99400.66;4911356;29;20333;-76
2022/08/22 04:19:42;;;;;;;6.68;6.07;;;;;;;24.03;100.00;99388.97;4892333;29;20643;-75
2022/08/22 04:22:22;;;;;;;6.75;6.13;;;;;;;24.20;100.00;99396.09;4901137;29;20213;-76
2022/08/22 04:24:56;;;;;;;8.82;6.00;;;;;;;24.11;100.00;99409.78;4980730;28;20201;-76
2022/08/22 04:27:29;;;;;;;7.10;6.15;;;;;;;24.20;100.00;99411.97;4989068;28;20201;-76
2022/08/22 04:30:05;;;;;;;8.57;6.25;;;;;;;24.41;100.00;99428.56;4989286;28;20689;-75
2022/08/22 04:32:37;;;;;;;7.07;5.82;;;;;;;24.46;100.00;99427.41;4987443;28;20348;-76
2022/08/22 04:35:08;;;;;;;8.65;6.18;;;;;;;24.47;100.00;99407.88;4989127;28;20205;-71
2022/08/22 04:37:42;;;;;;;7.13;5.70;;;;;;;24.71;100.00;99444.66;4981833;28;20682;-79
2022/08/22 04:40:17;;;;;;;6.15;5.60;;;;;;;24.50;100.00;99439.56;4973506;28;20198;-73
2022/08/22 04:42:49;;;;;;;9.10;5.47;;;;;;;24.57;100.00;99421.53;4974034;28;20212;-78
2022/08/22 04:45:21;;;;;;;8.95;6.20;;;;;;;24.24;100.00;99423.28;4984411;28;20378;-75
2022/08/22 04:47:55;;;;;;;7.07;5.82;;;;;;;24.36;100.00;99446.50;5033114;28;20200;-77
2022/08/22 04:50:26;;;;;;;13.85;8.93;;;;;;;24.19;100.00;99431.44;5050318;28;20206;-77
2022/08/22 04:53:09;;;;;;;8.27;6.90;;;;;;;24.11;100.00;99437.09;5056486;28;20218;-78
2022/08/22 04:55:48;;;;;;;12.27;6.60;;;;;;;23.82;100.00;99439.50;5084459;28;20645;-76
2022/08/22 04:58:29;;;;;;;7.38;6.50;;;;;;;23.72;100.00;99440.91;5072254;28;20200;-75
2022/08/22 05:01:03;;;;;;;6.93;6.22;;;;;;;23.68;100.00;99427.81;5078385;28;20229;-76
2022/08/22 05:03:44;;;;;;;9.75;6.65;;;;;;;24.01;100.00;99435.84;5084725;28;20204;-78
2022/08/22 05:06:14;;;;;;;13.45;6.18;;;;;;;24.16;100.00;99398.03;5087991;28;20238;-75
2022/08/22 05:08:43;;;;;;;6.78;6.03;;;;;;;24.30;100.00;99425.59;5079161;28;20226;-75
2022/08/22 05:11:12;;;;;;;8.82;6.22;;;;;;;24.35;100.00;99434.19;5091145;28;20202;-76
2022/08/22 05:13:43;;;;;;;7.57;6.78;;;;;;;24.55;100.00;99447.25;5090414;28;20727;-76
2022/08/22 05:16:14;;;;;;;8.80;5.55;;;;;;;24.67;100.00;99446.63;5065215;28;20222;-77
2022/08/22 05:18:47;;;;;;;6.68;6.07;;;;;;;24.78;100.00;99454.88;5098787;28;20209;-76
2022/08/22 05:21:17;;;;;;;6.80;6.10;;;;;;;24.98;100.00;99462.66;5054676;28;20213;-74
2022/08/22 05:23:51;;;;;;;12.77;6.82;;;;;;;24.98;100.00;99467.94;5090684;28;20715;-77
2022/08/22 05:26:21;;;;;;;11.20;6.80;;;;;;;24.85;100.00;99466.91;5087169;28;20194;-78
2022/08/22 05:28:50;;;;;;;10.77;5.18;;;;;;;25.01;100.00;99467.78;5090583;28;20684;-76
2022/08/22 05:31:23;;;;;;;8.90;6.78;;;;;;;25.17;100.00;99479.28;5055156;28;20220;-77
2022/08/22 05:33:57;;;;;;;9.73;5.80;;;;;;;25.04;100.00;99478.22;5079883;28;20795;-79
2022/08/22 05:36:27;;;;;;;59.78;35.08;;;;;;;25.01;100.00;99474.88;5081551;28;20193;-76
2022/08/22 05:38:57;;;;;;;7.90;6.53;;;;;;;24.93;100.00;99475.31;5095162;28;20706;-78
2022/08/22 05:41:30;;;;;;;6.72;6.00;;;;;;;25.04;100.00;99467.59;5095147;28;20209;-78
2022/08/22 05:43:57;;;;;;;10.50;6.22;;;;;;;25.10;100.00;99472.59;5076033;28;20257;-77
2022/08/22 05:46:35;;;;;;;9.35;6.13;;;;;;;25.25;100.00;99491.28;5101114;28;20209;-78
2022/08/22 05:49:08;;;;;;;9.77;5.97;;;;;;;25.11;100.00;99490.22;5094734;28;20194;-78
2022/08/22 05:51:43;;;;;;;10.20;5.45;;;;;;;24.73;100.00;99433.03;5094386;28;20205;-78
2022/08/22 05:54:15;;;;;;;6.13;5.55;;;;;;;24.95;100.00;99470.78;5093703;28;20221;-78
2022/08/22 05:56:47;;;;;;;5.82;5.22;;;;;;;24.83;100.00;99495.28;5093752;28;20202;-78
2022/08/22 05:59:25;;;;;;;8.50;6.00;;;;;;;24.75;100.00;99494.81;5093834;28;20209;-78
2022/08/22 06:02:05;;;;;;;6.18;5.57;;;;;;;24.55;100.00;99489.66;5093970;28;20202;-78
2022/08/22 06:04:39;;;;;;;8.57;5.65;;;;;;;24.66;100.00;99489.97;5093836;28;20197;-78
2022/08/22 06:07:11;;;;;;;5.03;4.63;;;;;;;25.17;100.00;99484.59;5087103;28;20206;-78
2022/08/22 06:10:05;;;;;;;8.45;5.13;;;;;;;25.27;100.00;99495.56;5086876;28;20217;-78
2022/08/22 06:12:37;;;;;;;7.13;4.75;;;;;;;25.53;100.00;99497.69;5082415;28;20225;-78
2022/08/22 06:15:11;;;;;;;7.85;4.90;;;;;;;25.17;100.00;99471.34;5093817;28;20198;-78
2022/08/22 06:17:42;;;;;;;5.35;4.95;;;;;;;25.26;100.00;99499.16;5057760;28;20201;-78
2022/08/22 06:20:16;;;;;;;10.90;5.78;;;;;;;25.10;100.00;99483.22;5093608;28;20206;-77
2022/08/22 06:22:51;;;;;;;6.05;4.80;;;;;;;25.02;100.00;99498.69;5093365;28;20202;-78
2022/08/22 06:25:22;;;;;;;6.72;5.15;;;;;;;25.10;100.00;99499.13;5078870;28;20767;-78
2022/08/22 06:27:50;;;;;;;7.65;5.03;;;;;;;24.96;100.00;99501.69;5091072;28;20202;-78
2022/08/22 06:30:18;;;;;;;5.05;4.40;;;;;;;24.74;100.00;99501.03;5093391;28;20194;-79
2022/08/22 06:32:51;;;;;;;11.55;4.90;;;;;;;25.06;100.00;99502.91;5057702;28;20283;-78
2022/08/22 06:35:24;;;;;;;7.95;5.05;;;;;;;25.12;100.00;99496.38;5093249;28;20210;-78
2022/08/22 06:37:55;;;;;;;6.55;5.40;;;;;;;24.92;100.00;99484.19;5093422;28;20232;-77
2022/08/22 06:40:22;;;;;;;7.30;5.28;;;;;;;25.09;100.00;99486.81;5092912;28;20205;-77
2022/08/22 06:42:51;;;;;;;7.85;5.13;;;;;;;25.40;100.00;99501.91;5092840;28;20233;-77
2022/08/22 06:45:25;;;;;;;7.35;5.03;;;;;;;25.78;100.00;99497.19;5093178;28;20596;-80
2022/08/22 06:47:55;;;;;;;6.97;4.70;;;;;;;25.71;100.00;99508.22;5093132;28;20284;-80
2022/08/22 06:50:29;;;;;;;5.45;4.60;;;;;;;25.61;100.00;99502.59;5093008;28;20202;-78
2022/08/22 06:53:02;;;;;;;7.38;4.80;;;;;;;25.57;100.00;99506.34;5092912;28;20241;-79
2022/08/22 06:55:31;;;;;;;7.85;5.65;;;;;;;25.82;100.00;99514.66;5057023;28;20186;-78
2022/08/22 06:58:02;;;;;;;10.38;5.30;;;;;;;25.89;100.00;99521.34;5092835;28;20202;-79
2022/08/22 07:00:31;;;;;;;7.60;5.40;;;;;;;25.80;100.00;99516.53;5092956;28;20645;-78
2022/08/22 07:03:07;;;;;;;7.90;5.75;;;;;;;25.69;100.00;99523.38;5092900;28;20197;-79
2022/08/22 07:05:38;;;;;;;9.90;7.03;;;;;;;25.58;100.00;99462.91;5093138;28;20205;-79
2022/08/22 07:08:07;;;;;;;9.95;6.65;;;;;;;25.96;100.00;99527.16;5092987;28;20202;-80
2022/08/22 07:10:34;;;;;;;8.25;4.82;;;;;;;25.57;100.00;99507.22;5092592;28;20205;-79
2022/08/22 07:13:07;;;;;;;5.15;4.72;;;;;;;25.78;100.00;99521.09;5092661;28;20310;-79
2022/08/22 07:15:36;;;;;;;9.73;6.57;;;;;;;26.12;100.00;99520.88;5092819;28;20198;-79
2022/08/22 07:18:06;;;;;;;14.48;9.27;;;;;;;26.27;100.00;99518.31;5092194;28;20207;-79
2022/08/22 07:20:40;;;;;;;7.55;6.80;;;;;;;26.35;100.00;99519.59;5056567;28;20190;-79
2022/08/22 07:23:12;;;;;;;7.30;6.07;;;;;;;26.13;100.00;99517.28;5073719;28;20197;-79
2022/08/22 07:25:50;;;;;;;7.28;6.57;;;;;;;26.07;100.00;99520.28;5092272;28;20319;-79
2022/08/22 07:28:28;;;;;;;6.40;5.90;;;;;;;26.09;100.00;99528.16;5092440;28;20190;-80
2022/08/22 07:30:58;;;;;;;7.65;6.95;;;;;;;25.90;100.00;99515.06;5092275;28;20191;-79
2022/08/22 07:33:39;;;;;;;7.32;5.93;;;;;;;26.06;100.00;99521.22;5092238;28;20233;-79
2022/08/22 07:36:34;;;;;;;9.82;6.88;;;;;;;26.50;100.00;99533.78;5092408;28;20670;-79
2022/08/22 07:39:22;;;;;;;6.40;5.80;;;;;;;26.60;100.00;99519.00;5092916;28;20234;-79
2022/08/22 07:42:02;;;;;;;16.73;7.00;;;;;;;26.68;100.00;99521.19;5092349;28;20203;-79
2022/08/22 07:44:36;;;;;;;10.48;6.63;;;;;;;27.32;100.00;99523.47;5093444;28;20201;-79
2022/08/22 07:47:08;;;;;;;12.43;6.68;;;;;;;27.21;100.00;99526.78;5092202;28;20259;-79
2022/08/22 07:49:38;;;;;;;7.57;5.55;;;;;;;27.23;100.00;99521.34;5092659;28;20190;-79
2022/08/22 07:52:10;;;;;;;8.38;6.03;;;;;;;27.43;100.00;99521.00;5092165;28;20619;-79
2022/08/22 07:54:43;;;;;;;6.97;6.28;;;;;;;27.40;100.00;99505.19;5092015;28;20257;-79
2022/08/22 07:57:14;;;;;;;4.97;4.57;;;;;;;27.72;100.00;99519.16;5092132;28;20194;-80
2022/08/22 07:59:48;;;;;;;5.60;4.53;;;;;;;28.10;100.00;99532.69;5091399;28;20194;-79
2022/08/22 08:02:18;;;;;;;12.15;5.30;;;;;;;28.35;100.00;99532.78;5091663;28;20205;-79
2022/08/22 08:04:46;;;;;;;6.70;5.68;;;;;;;28.22;100.00;99529.25;5091731;28;20692;-79
2022/08/22 08:07:17;;;;;;;7.50;5.18;;;;;;;28.53;100.00;99536.91;5055800;28;20202;-80
2022/08/22 08:09:49;;;;;;;6.70;5.07;;;;;;;28.03;100.00;99473.56;5072230;28;20198;-77
2022/08/22 08:12:20;;;;;;;10.57;6.68;;;;;;;28.56;100.00;99528.69;5091220;28;20198;-79
2022/08/22 08:14:53;;;;;;;5.65;4.93;;;;;;;28.18;100.00;99530.41;5091448;28;20221;-79
2022/08/22 08:17:24;;;;;;;8.25;5.20;;;;;;;28.10;100.00;99532.69;5091255;28;20259;-78
2022/08/22 08:19:52;;;;;;;7.70;5.60;;;;;;;27.92;100.00;99522.25;5091024;28;20194;-78
2022/08/22 08:22:24;;;;;;;7.50;5.97;;;;;;;28.17;100.00;99520.66;5090866;28;20205;-78
2022/08/22 08:24:55;;;;;;;7.47;5.60;;;;;;;27.77;100.00;99503.72;5091052;28;20206;-78
2022/08/22 08:30:14;;;;;;;5.82;5.28;;;;;;;27.61;100.00;99511.00;5091012;28;20285;-78
2022/08/22 08:32:43;;;;;;;5.65;5.25;;;;;;;27.70;100.00;99529.06;5090764;28;20202;-77
2022/08/22 08:35:17;;;;;;;5.70;5.13;;;;;;;27.90;100.00;99525.94;5090992;28;20241;-78
2022/08/22 08:37:49;;;;;;;6.95;4.95;;;;;;;27.50;100.00;99517.84;5090864;28;20233;-79
2022/08/22 08:40:28;;;;;;;7.05;5.80;;;;;;;27.50;100.00;99517.03;5085539;28;20735;-77
2022/08/22 08:43:30;;;;;;;7.45;5.82;;;;;;;27.70;100.00;99540.56;5075808;28;20206;-79
2022/08/22 08:46:33;;;;;;;12.63;5.85;;;;;;;27.55;100.00;99536.22;5090943;28;20596;-79
2022/08/22 08:49:28;;;;;;;8.77;5.05;;;;;;;27.38;100.00;99531.06;4988511;28;20971;-78
2022/08/22 08:52:39;;;;;;;10.50;6.00;;;;;;;27.25;100.00;99530.97;4988527;28;20249;-77
2022/08/22 08:55:19;;;;;;;7.50;6.20;;;;;;;26.93;100.00;99532.94;4874111;29;20238;-78
2022/08/22 08:57:58;;;;;;;6.00;5.45;;;;;;;26.71;100.00;99537.81;4874035;29;20679;-78
2022/08/22 09:00:43;;;;;;;9.30;6.38;;;;;;;26.64;100.00;99536.47;4874264;29;20201;-78
2022/08/22 09:03:22;;;;;;;7.18;6.00;;;;;;;26.27;100.00;99527.13;4874263;29;20205;-79
2022/08/22 09:06:02;;;;;;;9.38;6.15;;;;;;;26.29;100.00;99545.66;4873899;29;20725;-79
2022/08/22 09:08:57;;;;;;;6.00;5.43;;;;;;;26.20;100.00;99546.19;4824857;29;20202;-79
2022/08/22 09:12:02;;;;;;;7.90;6.15;;;;;;;26.43;100.00;99551.03;4855761;29;20703;-79
2022/08/22 09:14:52;;;;;;;8.50;6.60;;;;;;;26.37;100.00;99554.03;4855548;29;20237;-78
2022/08/22 09:17:37;;;;;;;8.93;7.15;;;;;;;26.70;100.00;99551.19;4855571;29;20211;-80
2022/08/22 09:20:21;;;;;;;11.85;7.28;;;;;;;26.94;100.00;99555.94;4836876;29;20202;-78
2022/08/22 09:23:27;;;;;;;7.47;6.60;;;;;;;27.05;100.00;99553.50;4848751;29;20210;-77
2022/08/22 09:25:59;;;;;;;7.57;6.45;;;;;;;27.52;100.00;99550.59;4864160;29;20207;-77
2022/08/22 09:28:37;;;;;;;8.18;6.80;;;;;;;28.17;100.00;99544.66;4928557;28;20205;-77
2022/08/22 09:31:23;;;;;;;10.70;6.88;;;;;;;28.74;100.00;99551.47;4972723;28;20210;-79
2022/08/22 09:33:54;;;;;;;8.57;6.13;;;;;;;29.03;100.00;99553.00;5065488;28;20222;-80
2022/08/22 09:36:27;;;;;;;7.57;6.15;;;;;;;29.50;100.00;99556.88;5049412;28;20235;-78
2022/08/22 09:38:58;;;;;;;7.90;6.55;;;;;;;29.69;100.00;99556.38;5047334;28;20231;-79
2022/08/22 09:41:39;;;;;;;12.95;6.47;;;;;;;29.14;100.00;99556.75;4997566;28;20671;-79
2022/08/22 09:44:18;;;;;;;8.43;5.78;;;;;;;28.77;100.00;99551.28;5047310;28;20294;-78
2022/08/22 09:46:58;;;;;;;8.40;6.20;;;;;;;28.53;100.00;99547.56;5047476;28;20208;-78
2022/08/22 09:49:36;;;;;;;8.20;6.78;;;;;;;28.31;100.00;99552.63;5034723;28;20238;-78
2022/08/22 09:52:07;;;;;;;7.80;7.00;;;;;;;28.21;100.00;99544.38;5047192;28;20199;-78
2022/08/22 09:54:43;;;;;;;7.85;7.00;;;;;;;28.63;100.00;99529.97;5046909;28;20227;-78
2022/08/22 09:57:19;;;;;;;8.45;7.55;;;;;;;28.61;100.00;99553.22;5047119;28;20199;-78
2022/08/22 10:00:13;;;;;;;8.35;6.88;;;;;;;28.56;100.00;99558.03;5046939;28;20803;-77
2022/08/22 10:02:50;;;;;;;8.10;6.10;;;;;;;28.43;100.00;99531.31;4988532;28;20275;-79
2022/08/22 10:05:24;;;;;;;8.65;7.03;;;;;;;28.31;100.00;99531.28;5007361;28;20204;-79
2022/08/22 10:08:19;;;;;;;7.25;6.28;;;;;;;28.21;100.00;99524.84;5007880;28;20200;-78
2022/08/22 10:11:00;;;;;;;7.35;6.53;;;;;;;28.96;100.00;99538.38;4910779;29;20287;-78
2022/08/22 10:13:37;;;;;;;8.43;6.40;;;;;;;29.04;100.00;99500.44;4910903;29;20208;-77
2022/08/22 10:16:21;;;;;;;10.95;6.45;;;;;;;29.52;100.00;99542.44;4911088;29;20208;-80
2022/08/22 10:19:02;;;;;;;7.03;6.25;;;;;;;29.25;100.00;99514.94;4912314;29;20204;-78
2022/08/22 10:21:38;;;;;;;10.52;6.63;;;;;;;29.56;100.00;99539.53;4914251;29;20200;-78
2022/08/22 10:24:18;;;;;;;8.50;6.28;;;;;;;29.41;99.86;99541.47;4914459;29;20199;-79
2022/08/22 10:26:50;;;;;;;6.38;5.78;;;;;;;28.81;100.00;99429.16;4914180;29;20211;-78
2022/08/22 10:29:39;;;;;;;9.00;5.88;;;;;;;29.62;96.64;99534.59;4914277;29;20203;-78
2022/08/22 10:32:18;;;;;;;6.32;5.35;;;;;;;29.54;97.65;99536.97;4914150;29;20207;-79
2022/08/22 10:34:50;;;;;;;5.97;5.43;;;;;;;29.73;92.60;99542.69;4914053;29;20232;-78
2022/08/22 10:37:26;;;;;;;5.47;4.95;;;;;;;29.59;88.67;99526.81;4898349;29;20240;-76
2022/08/22 10:40:00;;;;;;;10.10;5.75;;;;;;;29.62;95.51;99518.56;4948491;28;20219;-77
2022/08/22 10:42:32;;;;;;;6.88;5.80;;;;;;;29.72;95.87;99522.28;4994970;28;20215;-78
2022/08/22 10:45:17;;;;;;;6.35;5.78;;;;;;;29.16;100.00;99514.75;5007504;28;20663;-78
2022/08/22 10:48:15;;;;;;;9.20;5.63;;;;;;;29.56;98.58;99527.03;5041032;28;20674;-77
2022/08/22 10:50:48;;;;;;;6.07;5.57;;;;;;;29.14;100.00;99503.34;5058147;28;20201;-78
2022/08/22 10:53:32;;;;;;;5.97;5.32;;;;;;;28.71;100.00;99511.66;5072532;28;20603;-77
2022/08/22 10:56:09;;;;;;;6.93;5.88;;;;;;;28.77;100.00;99503.22;5072203;28;20314;-77
2022/08/22 10:58:41;;;;;;;8.68;6.03;;;;;;;28.97;100.00;99510.69;5089294;28;20205;-78
2022/08/22 11:01:11;;;;;;;5.97;5.45;;;;;;;28.87;100.00;99506.97;5092193;28;20198;-78
2022/08/22 11:03:43;;;;;;;9.77;5.70;;;;;;;28.75;100.00;99510.50;5089105;28;20190;-78
2022/08/22 11:06:16;;;;;;;7.47;5.97;;;;;;;28.87;100.00;99493.63;5091985;28;20201;-79
2022/08/22 11:09:08;;;;;;;6.97;5.70;;;;;;;28.72;100.00;99486.66;5089704;28;20200;-80
2022/08/22 11:11:41;;;;;;;5.70;5.20;;;;;;;28.73;100.00;99496.38;5091639;28;20191;-79
2022/08/22 11:14:52;;;;;;;6.03;5.45;;;;;;;28.64;100.00;99491.66;5091849;28;20666;-79
2022/08/22 11:17:33;;;;;;;7.32;6.03;;;;;;;28.61;100.00;99486.50;5040758;28;20242;-79
2022/08/22 11:20:16;;;;;;;7.63;5.95;;;;;;;28.57;100.00;99485.88;5039985;28;20225;-78
2022/08/22 11:22:58;;;;;;;8.27;5.90;;;;;;;28.23;100.00;99465.13;5028856;28;20196;-78
2022/08/22 11:25:40;;;;;;;9.23;6.32;;;;;;;27.99;100.00;99480.06;5029377;28;20651;-78
2022/08/22 11:28:31;;;;;;;8.77;6.28;;;;;;;28.33;100.00;99473.34;5029350;28;20199;-79
2022/08/22 11:31:05;;;;;;;10.32;5.65;;;;;;;28.44;100.00;99476.16;5027958;28;20216;-79
2022/08/22 11:33:39;;;;;;;7.30;6.60;;;;;;;28.28;100.00;99408.81;5029413;28;20192;-78
2022/08/22 11:36:26;;;;;;;6.05;5.55;;;;;;;28.38;100.00;99464.09;5029154;28;20735;-78
2022/08/22 11:39:06;;;;;;;10.70;6.55;;;;;;;28.70;100.00;99450.38;5029113;28;20235;-80
2022/08/22 11:41:43;;;;;;;11.73;5.88;;;;;;;28.83;99.74;99454.75;5033726;28;20200;-79
2022/08/22 11:44:18;;;;;;;6.55;5.90;;;;;;;28.92;99.10;99454.13;5040448;28;20777;-79
2022/08/22 11:46:48;;;;;;;8.32;6.22;;;;;;;29.06;98.23;99453.16;5033109;28;20199;-80
2022/08/22 11:49:26;;;;;;;9.90;6.05;;;;;;;29.04;97.75;99453.25;5029207;28;20200;-79
2022/08/22 11:52:07;;;;;;;11.45;6.22;;;;;;;28.88;99.07;99447.28;5029220;28;20651;-77
2022/08/22 11:54:49;;;;;;;7.78;5.63;;;;;;;29.20;97.81;99446.81;5057238;28;20596;-80
2022/08/22 11:57:20;;;;;;;7.45;5.85;;;;;;;29.06;96.25;99445.13;5072189;28;20229;-80
2022/08/22 12:00:08;;;;;;;7.13;6.03;;;;;;;29.30;95.52;99445.22;5071359;28;20198;-78
2022/08/22 12:02:57;;;;;;;7.07;6.18;;;;;;;29.62;94.48;99446.41;5071184;28;20199;-79
2022/08/22 12:05:30;;;;;;;5.80;5.15;;;;;;;29.01;95.46;99434.78;5078154;28;20589;-79
2022/08/22 12:08:09;;;;;;;8.50;6.05;;;;;;;28.62;95.74;99380.66;5089219;28;20198;-79
2022/08/22 12:10:47;;;;;;;6.05;5.53;;;;;;;29.35;94.11;99440.41;5089447;28;20190;-78
2022/08/22 12:13:20;;;;;;;6.97;5.88;;;;;;;29.36;94.09;99410.06;5089104;28;20198;-78
2022/08/22 12:15:54;;;;;;;9.90;5.88;;;;;;;29.41;94.50;99439.97;5088731;28;20676;-80
2022/08/22 12:18:40;;;;;;;10.48;6.82;;;;;;;29.76;91.31;99440.03;5091353;28;20212;-78
2022/08/22 12:21:37;;;;;;;11.40;5.70;;;;;;;29.71;92.88;99442.22;5091260;28;20205;-79
2022/08/22 12:24:26;;;;;;;10.32;6.40;;;;;;;29.47;94.93;99428.81;5091090;28;20205;-80